createdAt,value
2019-03-26T00:00:23.310Z,96664.12
2019-03-26T00:01:26.947Z,96654.34
2019-03-26T00:02:30.651Z,96666.22
2019-03-26T00:03:34.286Z,96662.33
2019-03-26T00:04:37.922Z,96664.56
2019-03-26T00:05:41.593Z,96662.58
2019-03-26T00:06:45.155Z,96666.60
2019-03-26T00:07:48.788Z,96664.39
2019-03-26T00:08:52.355Z,96669.08
2019-03-26T00:09:55.990Z,96663.33
2019-03-26T00:10:59.659Z,96665.84
2019-03-26T00:12:03.469Z,96667.94
2019-03-26T00:13:07.096Z,96672.75
2019-03-26T00:14:10.751Z,96673.67
2019-03-26T00:15:14.384Z,96670.84
2019-03-26T00:16:18.051Z,96673.20
2019-03-26T00:17:21.612Z,96673.18
2019-03-26T00:18:25.181Z,96671.84
2019-03-26T00:19:28.816Z,96669.58
2019-03-26T00:20:32.447Z,96671.59
2019-03-26T00:21:36.229Z,96671.13
2019-03-26T00:22:39.865Z,96675.46
2019-03-26T00:23:43.499Z,96672.11
2019-03-26T00:24:47.142Z,96671.19
2019-03-26T00:25:50.774Z,96672.13
2019-03-26T00:26:54.450Z,96678.95
2019-03-26T00:27:58.083Z,96672.71
2019-03-26T00:29:01.722Z,96679.20
2019-03-26T00:30:06.787Z,96683.68
2019-03-26T00:31:10.421Z,96678.55
2019-03-26T00:32:14.096Z,96677.12
2019-03-26T00:33:17.726Z,96682.58
2019-03-26T00:34:21.380Z,96681.41
2019-03-26T00:35:24.996Z,96687.38
2019-03-26T00:36:28.623Z,96684.14
2019-03-26T00:37:32.295Z,96689.20
2019-03-26T00:38:36.018Z,96686.37
2019-03-26T00:39:39.627Z,96687.50
2019-03-26T00:40:43.266Z,96695.33
2019-03-26T00:41:46.893Z,96695.33
2019-03-26T00:42:50.561Z,96694.34
2019-03-26T00:43:54.191Z,96692.45
2019-03-26T00:44:57.830Z,96692.45
2019-03-26T00:46:01.465Z,96696.58
2019-03-26T00:47:05.174Z,96694.59
2019-03-26T00:48:08.813Z,96695.56
2019-03-26T00:49:12.459Z,96696.01
2019-03-26T00:50:16.448Z,96701.36
2019-03-26T00:51:20.084Z,96696.64
2019-03-26T00:52:23.736Z,96701.78
2019-03-26T00:53:27.407Z,96702.49
2019-03-26T00:54:31.047Z,96701.16
2019-03-26T00:55:34.687Z,96700.98
2019-03-26T00:56:38.710Z,96698.73
2019-03-26T00:57:42.349Z,96701.45
2019-03-26T00:58:46.332Z,96701.45
2019-03-26T00:59:49.968Z,96705.12
2019-03-26T01:00:53.604Z,96706.13
2019-03-26T01:01:57.273Z,96694.08
2019-03-26T01:03:00.979Z,96705.25
2019-03-26T01:04:04.693Z,96708.52
2019-03-26T01:05:08.486Z,96708.52
2019-03-26T01:06:12.120Z,96713.72
2019-03-26T01:07:15.865Z,96713.72
2019-03-26T01:08:19.852Z,96701.41
2019-03-26T01:09:23.561Z,96704.78
2019-03-26T01:10:27.997Z,96711.03
2019-03-26T01:11:31.649Z,96713.30
2019-03-26T01:12:35.371Z,96706.94
2019-03-26T01:13:39.368Z,96709.75
2019-03-26T01:14:43.079Z,96716.23
2019-03-26T01:15:46.729Z,96714.66
2019-03-26T01:16:50.445Z,96715.31
2019-03-26T01:17:54.119Z,96714.66
2019-03-26T01:18:57.797Z,96714.66
2019-03-26T01:20:01.506Z,96713.19
2019-03-26T01:21:05.145Z,96706.94
2019-03-26T01:22:08.789Z,96715.11
2019-03-26T01:23:12.508Z,96715.11
2019-03-26T01:24:16.160Z,96716.78
2019-03-26T01:25:19.869Z,96716.78
2019-03-26T01:26:23.509Z,96715.35
2019-03-26T01:27:27.138Z,96715.35
2019-03-26T01:28:30.861Z,96711.70
2019-03-26T01:29:34.494Z,96718.50
2019-03-26T01:30:38.199Z,96718.50
2019-03-26T01:31:41.845Z,96719.38
2019-03-26T01:32:45.849Z,96712.67
2019-03-26T01:33:49.524Z,96722.06
2019-03-26T01:34:53.167Z,96722.06
2019-03-26T01:35:56.806Z,96721.38
2019-03-26T01:37:00.456Z,96720.27
2019-03-26T01:38:04.172Z,96713.09
2019-03-26T01:39:08.222Z,96709.53
2019-03-26T01:40:11.872Z,96709.53
2019-03-26T01:41:15.589Z,96722.39
2019-03-26T01:42:19.566Z,96718.70
2019-03-26T01:43:23.281Z,96715.36
2019-03-26T01:44:26.952Z,96715.36
2019-03-26T01:45:30.595Z,96717.62
2019-03-26T01:46:34.648Z,96717.62
2019-03-26T01:47:38.283Z,96715.59
2019-03-26T01:48:41.986Z,96715.59
2019-03-26T01:49:46.028Z,96715.37
2019-03-26T01:50:49.736Z,96715.37
2019-03-26T01:51:53.388Z,96718.72
2019-03-26T01:52:57.093Z,96718.72
2019-03-26T01:54:00.725Z,96721.86
2019-03-26T01:55:06.488Z,96714.72
2019-03-26T01:56:10.119Z,96719.49
2019-03-26T01:57:13.840Z,96710.45
2019-03-26T01:58:17.873Z,96717.83
2019-03-26T01:59:21.585Z,96717.83
2019-03-26T02:00:25.280Z,96714.27
2019-03-26T02:01:28.919Z,96714.27
2019-03-26T02:02:32.623Z,96718.27
2019-03-26T02:03:36.321Z,96720.16
2019-03-26T02:04:40.402Z,96720.16
2019-03-26T02:05:44.076Z,96722.28
2019-03-26T02:06:47.706Z,96719.83
2019-03-26T02:07:51.348Z,96725.19
2019-03-26T02:08:54.990Z,96725.19
2019-03-26T02:09:58.710Z,96721.81
2019-03-26T02:11:02.387Z,96721.81
2019-03-26T02:12:06.109Z,96730.50
2019-03-26T02:13:10.150Z,96735.22
2019-03-26T02:14:14.043Z,96735.22
2019-03-26T02:15:29.045Z,96733.83
2019-03-26T02:16:33.143Z,96729.81
2019-03-26T02:17:36.786Z,96729.81
2019-03-26T02:18:40.445Z,96735.62
2019-03-26T02:19:44.087Z,96729.58
2019-03-26T02:20:47.730Z,96736.88
2019-03-26T02:21:51.395Z,96736.88
2019-03-26T02:22:55.019Z,96733.36
2019-03-26T02:23:58.647Z,96734.93
2019-03-26T02:25:02.469Z,96743.44
2019-03-26T02:26:06.099Z,96743.44
2019-03-26T02:27:09.783Z,96744.22
2019-03-26T02:28:13.450Z,96735.81
2019-03-26T02:29:17.135Z,96737.61
2019-03-26T02:30:20.779Z,96746.11
2019-03-26T02:31:24.811Z,96736.16
2019-03-26T02:32:28.849Z,96749.25
2019-03-26T02:33:32.499Z,96751.94
2019-03-26T02:34:36.246Z,96754.56
2019-03-26T02:35:39.849Z,96762.14
2019-03-26T02:36:43.483Z,96757.66
2019-03-26T02:37:47.152Z,96757.66
2019-03-26T02:38:50.846Z,96763.66
2019-03-26T02:39:54.488Z,96765.12
2019-03-26T02:40:58.113Z,96763.86
2019-03-26T02:42:02.195Z,96763.86
2019-03-26T02:43:05.874Z,96771.46
2019-03-26T02:44:09.500Z,96770.99
2019-03-26T02:45:13.138Z,96776.63
2019-03-26T02:46:16.777Z,96776.63
2019-03-26T02:47:20.415Z,96785.34
2019-03-26T02:48:24.086Z,96785.34
2019-03-26T02:49:27.725Z,96786.48
2019-03-26T02:50:31.365Z,96786.01
2019-03-26T02:51:35.000Z,96791.98
2019-03-26T02:52:38.985Z,96789.33
2019-03-26T02:53:42.677Z,96788.50
2019-03-26T02:54:46.281Z,96793.17
2019-03-26T02:55:49.916Z,96790.31
2019-03-26T02:56:53.473Z,96791.45
2019-03-26T02:57:57.451Z,96792.25
2019-03-26T02:59:01.141Z,96793.90
2019-03-26T03:00:07.454Z,96793.90
2019-03-26T03:01:11.108Z,96796.40
2019-03-26T03:02:14.739Z,96803.64
2019-03-26T03:03:18.369Z,96803.64
2019-03-26T03:04:21.981Z,96789.16
2019-03-26T03:05:34.943Z,96794.02
2019-03-26T03:06:30.967Z,96794.46
2019-03-26T03:07:34.601Z,96794.38
2019-03-26T03:08:38.252Z,96795.25
2019-03-26T03:09:41.925Z,96788.88
2019-03-26T03:10:45.546Z,96791.11
2019-03-26T03:11:49.109Z,96791.11
2019-03-26T03:12:52.742Z,96797.13
2019-03-26T03:13:56.309Z,96797.13
2019-03-26T03:14:59.998Z,96798.23
2019-03-26T03:16:03.610Z,96800.70
2019-03-26T03:17:07.249Z,96803.83
2019-03-26T03:18:10.891Z,96799.69
2019-03-26T03:19:16.066Z,96799.58
2019-03-26T03:20:20.068Z,96802.95
2019-03-26T03:21:23.999Z,96798.16
2019-03-26T03:22:28.030Z,96804.24
2019-03-26T03:23:31.744Z,96798.95
2019-03-26T03:24:35.387Z,96798.30
2019-03-26T03:25:39.058Z,96801.94
2019-03-26T03:26:42.714Z,96808.15
2019-03-26T03:27:46.265Z,96801.08
2019-03-26T03:28:49.902Z,96815.36
2019-03-26T03:29:53.539Z,96815.13
2019-03-26T03:30:57.220Z,96819.56
2019-03-26T03:32:01.015Z,96812.58
2019-03-26T03:33:04.655Z,96810.20
2019-03-26T03:34:08.290Z,96817.80
2019-03-26T03:35:12.446Z,96820.71
2019-03-26T03:36:16.112Z,96822.23
2019-03-26T03:37:19.751Z,96824.25
2019-03-26T03:38:23.399Z,96817.62
2019-03-26T03:39:27.047Z,96825.17
2019-03-26T03:40:30.677Z,96824.48
2019-03-26T03:41:34.382Z,96833.34
2019-03-26T03:42:38.013Z,96837.69
2019-03-26T03:43:41.650Z,96822.67
2019-03-26T03:44:45.282Z,96831.72
2019-03-26T03:45:48.918Z,96837.69
2019-03-26T03:46:54.064Z,96839.67
2019-03-26T03:47:58.410Z,96836.77
2019-03-26T03:49:02.635Z,96845.27
2019-03-26T03:50:07.862Z,96841.48
2019-03-26T03:51:13.624Z,96836.93
2019-03-26T03:52:18.914Z,96835.73
2019-03-26T03:53:23.049Z,96829.22
2019-03-26T03:54:27.487Z,96837.86
2019-03-26T03:55:31.731Z,96841.11
2019-03-26T03:56:37.662Z,96839.20
2019-03-26T03:57:41.941Z,96841.56
2019-03-26T03:58:47.851Z,96839.91
2019-03-26T03:59:53.495Z,96840.16
2019-03-26T04:00:57.119Z,96839.27
2019-03-26T04:02:00.753Z,96840.16
2019-03-26T04:03:05.265Z,96841.67
2019-03-26T04:04:08.882Z,96841.67
2019-03-26T04:05:12.527Z,96847.19
2019-03-26T04:06:16.163Z,96847.19
2019-03-26T04:07:20.133Z,96845.20
2019-03-26T04:08:24.136Z,96840.33
2019-03-26T04:09:27.843Z,96844.55
2019-03-26T04:10:31.474Z,96848.34
2019-03-26T04:11:35.116Z,96852.02
2019-03-26T04:12:38.749Z,96852.98
2019-03-26T04:13:42.516Z,96852.98
2019-03-26T04:14:46.147Z,96861.72
2019-03-26T04:15:50.088Z,96861.06
2019-03-26T04:16:53.722Z,96861.17
2019-03-26T04:17:57.360Z,96854.08
2019-03-26T04:19:01.480Z,96857.27
2019-03-26T04:20:05.221Z,96858.50
2019-03-26T04:21:08.864Z,96866.52
2019-03-26T04:22:12.493Z,96866.94
2019-03-26T04:23:16.126Z,96875.64
2019-03-26T04:24:19.789Z,96871.86
2019-03-26T04:25:23.428Z,96874.37
2019-03-26T04:26:28.014Z,96871.80
2019-03-26T04:27:31.650Z,96879.47
2019-03-26T04:28:35.329Z,96880.50
2019-03-26T04:29:38.989Z,96887.25
2019-03-26T04:30:43.075Z,96889.23
2019-03-26T04:31:46.756Z,96894.27
2019-03-26T04:32:50.396Z,96895.50
2019-03-26T04:33:54.028Z,96890.64
2019-03-26T04:34:57.697Z,96896.44
2019-03-26T04:36:01.338Z,96898.56
2019-03-26T04:37:04.979Z,96897.36
2019-03-26T04:38:08.609Z,96901.38
2019-03-26T04:39:12.237Z,96903.98
2019-03-26T04:40:15.913Z,96904.45
2019-03-26T04:41:19.612Z,96904.33
2019-03-26T04:42:23.267Z,96902.59
2019-03-26T04:43:26.904Z,96906.98
2019-03-26T04:44:30.525Z,96913.44
2019-03-26T04:45:34.554Z,96910.36
2019-03-26T04:46:38.184Z,96917.53
2019-03-26T04:47:41.892Z,96923.08
2019-03-26T04:48:45.443Z,96911.92
2019-03-26T04:49:49.063Z,96916.31
2019-03-26T04:50:52.803Z,96920.03
2019-03-26T04:51:56.450Z,96919.31
2019-03-26T04:53:00.092Z,96914.73
2019-03-26T04:54:03.734Z,96919.20
2019-03-26T04:55:07.477Z,96914.02
2019-03-26T04:56:11.156Z,96921.91
2019-03-26T04:57:14.791Z,96914.27
2019-03-26T04:58:18.430Z,96926.23
2019-03-26T04:59:21.997Z,96925.48
2019-03-26T05:00:25.633Z,96923.76
2019-03-26T05:01:29.307Z,96929.77
2019-03-26T05:02:33.533Z,96939.76
2019-03-26T05:03:38.086Z,96933.62
2019-03-26T05:04:42.017Z,96940.92
2019-03-26T05:05:45.665Z,96935.50
2019-03-26T05:06:49.342Z,96942.87
2019-03-26T05:07:52.898Z,96946.09
2019-03-26T05:08:56.543Z,96946.09
2019-03-26T05:10:00.396Z,96946.73
2019-03-26T05:11:04.150Z,96947.52
2019-03-26T05:12:07.817Z,96948.45
2019-03-26T05:13:11.459Z,96943.89
2019-03-26T05:14:15.102Z,96944.48
2019-03-26T05:15:18.800Z,96946.38
2019-03-26T05:16:22.434Z,96941.81
2019-03-26T05:17:26.079Z,96947.41
2019-03-26T05:18:30.047Z,96949.99
2019-03-26T05:19:34.072Z,96943.77
2019-03-26T05:20:37.716Z,96949.97
2019-03-26T05:21:43.010Z,96948.09
2019-03-26T05:22:52.679Z,96946.27
2019-03-26T05:23:57.886Z,96944.21
2019-03-26T05:25:01.436Z,96947.03
2019-03-26T05:26:06.940Z,96954.69
2019-03-26T05:27:13.307Z,96948.55
2019-03-26T05:28:17.146Z,96954.17
2019-03-26T05:29:20.843Z,96953.81
2019-03-26T05:30:24.487Z,96954.64
2019-03-26T05:31:28.054Z,96958.47
2019-03-26T05:32:31.694Z,96961.39
2019-03-26T05:33:35.380Z,96959.48
2019-03-26T05:34:38.967Z,96971.11
2019-03-26T05:35:42.589Z,96962.23
2019-03-26T05:36:51.488Z,96965.63
2019-03-26T05:37:51.691Z,96973.48
2019-03-26T05:38:57.367Z,96973.48
2019-03-26T05:40:01.047Z,96974.87
2019-03-26T05:41:04.699Z,96979.62
2019-03-26T05:42:08.429Z,96988.20
2019-03-26T05:43:12.080Z,96983.67
2019-03-26T05:44:15.751Z,96983.67
2019-03-26T05:45:19.416Z,96984.23
2019-03-26T05:46:23.057Z,96990.03
2019-03-26T05:47:26.702Z,96988.84
2019-03-26T05:48:30.343Z,96980.22
2019-03-26T05:49:34.019Z,96994.80
2019-03-26T05:50:37.768Z,96996.62
2019-03-26T05:51:41.411Z,96990.46
2019-03-26T05:52:45.053Z,96990.46
2019-03-26T05:53:48.690Z,96992.07
2019-03-26T05:54:52.651Z,96992.45
2019-03-26T05:55:56.293Z,96992.45
2019-03-26T05:56:59.873Z,96994.14
2019-03-26T05:58:03.522Z,96992.25
2019-03-26T05:59:07.157Z,96994.16
2019-03-26T06:00:14.534Z,96994.16
2019-03-26T06:01:18.173Z,96992.96
2019-03-26T06:02:21.830Z,96992.96
2019-03-26T06:03:25.455Z,96999.81
2019-03-26T06:04:29.104Z,96996.71
2019-03-26T06:05:32.786Z,96996.71
2019-03-26T06:06:36.465Z,96996.50
2019-03-26T06:07:40.093Z,96996.50
2019-03-26T06:08:43.745Z,96986.41
2019-03-26T06:09:47.685Z,96994.03
2019-03-26T06:10:51.401Z,96990.94
2019-03-26T06:11:55.062Z,97003.46
2019-03-26T06:12:58.734Z,96997.42
2019-03-26T06:14:02.672Z,96989.60
2019-03-26T06:15:08.751Z,96998.13
2019-03-26T06:16:12.392Z,97002.02
2019-03-26T06:17:16.073Z,97005.03
2019-03-26T06:18:19.718Z,96989.43
2019-03-26T06:19:23.337Z,96989.43
2019-03-26T06:20:26.980Z,96999.38
2019-03-26T06:21:30.611Z,97001.30
2019-03-26T06:22:34.605Z,96994.36
2019-03-26T06:23:38.244Z,97001.61
2019-03-26T06:24:41.887Z,96994.56
2019-03-26T06:25:45.544Z,96994.56
2019-03-26T06:26:49.181Z,96995.45
2019-03-26T06:27:52.844Z,97002.83
2019-03-26T06:28:56.479Z,96996.98
2019-03-26T06:30:00.043Z,96993.88
2019-03-26T06:31:03.767Z,97001.57
2019-03-26T06:32:07.843Z,97001.57
2019-03-26T06:33:11.537Z,97006.95
2019-03-26T06:34:15.170Z,97003.02
2019-03-26T06:35:18.821Z,96994.70
2019-03-26T06:36:22.462Z,96994.70
2019-03-26T06:37:26.105Z,97009.30
2019-03-26T06:38:29.782Z,97007.97
2019-03-26T06:39:33.433Z,97011.34
2019-03-26T06:40:40.029Z,97002.59
2019-03-26T06:41:43.683Z,97002.40
2019-03-26T06:42:47.315Z,97005.84
2019-03-26T06:43:52.059Z,97005.84
2019-03-26T06:44:55.704Z,97006.08
2019-03-26T06:45:59.929Z,97006.30
2019-03-26T06:47:03.559Z,97011.12
2019-03-26T06:48:07.538Z,97007.31
2019-03-26T06:49:11.210Z,97005.27
2019-03-26T06:50:15.041Z,97007.92
2019-03-26T06:51:18.682Z,97000.76
2019-03-26T06:52:22.340Z,96998.95
2019-03-26T06:53:26.051Z,97009.47
2019-03-26T06:54:30.114Z,97001.19
2019-03-26T06:55:33.760Z,97010.11
2019-03-26T06:56:37.395Z,97002.89
2019-03-26T06:57:41.056Z,97008.95
2019-03-26T06:58:44.738Z,97007.55
2019-03-26T06:59:48.550Z,97011.78
2019-03-26T07:00:52.162Z,97011.09
2019-03-26T07:01:56.326Z,97017.03
2019-03-26T07:03:01.385Z,97006.60
2019-03-26T07:04:05.022Z,97009.02
2019-03-26T07:05:09.099Z,97014.83
2019-03-26T07:06:12.753Z,97018.16
2019-03-26T07:07:16.693Z,97012.75
2019-03-26T07:08:20.338Z,97012.27
2019-03-26T07:09:23.978Z,97007.45
2019-03-26T07:10:29.326Z,97007.45
2019-03-26T07:11:32.901Z,97018.31
2019-03-26T07:12:36.550Z,97008.43
2019-03-26T07:13:40.141Z,97006.04
2019-03-26T07:14:43.784Z,97009.10
2019-03-26T07:15:47.470Z,97003.38
2019-03-26T07:16:51.105Z,97010.14
2019-03-26T07:17:55.087Z,97004.70
2019-03-26T07:18:58.722Z,97010.21
2019-03-26T07:20:02.703Z,97010.21
2019-03-26T07:21:06.366Z,97002.92
2019-03-26T07:22:10.089Z,97012.70
2019-03-26T07:23:13.726Z,97012.87
2019-03-26T07:24:17.368Z,97013.80
2019-03-26T07:25:21.018Z,97010.09
2019-03-26T07:26:24.686Z,97007.78
2019-03-26T07:27:28.329Z,97010.05
2019-03-26T07:28:31.959Z,97012.02
2019-03-26T07:29:35.600Z,97022.27
2019-03-26T07:30:41.108Z,97011.23
2019-03-26T07:31:45.062Z,96990.97
2019-03-26T07:32:48.702Z,97031.11
2019-03-26T07:33:52.374Z,97019.05
2019-03-26T07:34:55.943Z,97021.22
2019-03-26T07:35:59.575Z,97026.95
2019-03-26T07:37:03.230Z,97024.38
2019-03-26T07:38:06.874Z,97025.69
2019-03-26T07:39:10.519Z,97025.69
2019-03-26T07:40:14.721Z,97031.48
2019-03-26T07:41:18.365Z,97023.69
2019-03-26T07:42:22.048Z,97002.34
2019-03-26T07:43:25.710Z,97002.34
2019-03-26T07:44:29.332Z,97029.48
2019-03-26T07:45:33.278Z,97024.41
2019-03-26T07:46:36.919Z,97025.27
2019-03-26T07:47:40.566Z,97022.56
2019-03-26T07:48:44.220Z,97031.72
2019-03-26T07:49:47.911Z,97031.72
2019-03-26T07:50:51.552Z,97043.34
2019-03-26T07:51:55.541Z,97037.61
2019-03-26T07:52:59.216Z,97040.55
2019-03-26T07:54:02.851Z,97045.89
2019-03-26T07:55:08.295Z,97035.30
2019-03-26T07:56:11.934Z,97034.14
2019-03-26T07:57:17.514Z,97039.19
2019-03-26T07:58:21.185Z,97041.36
2019-03-26T07:59:24.821Z,97043.61
2019-03-26T08:00:33.511Z,97040.34
2019-03-26T08:01:37.154Z,97035.35
2019-03-26T08:02:40.788Z,97043.66
2019-03-26T08:03:44.455Z,97040.94
2019-03-26T08:04:48.097Z,97039.41
2019-03-26T08:05:51.754Z,97043.63
2019-03-26T08:06:55.372Z,97040.42
2019-03-26T08:07:59.107Z,97041.78
2019-03-26T08:09:03.395Z,97038.02
2019-03-26T08:10:08.444Z,97032.23
2019-03-26T08:11:12.081Z,97036.37
2019-03-26T08:12:15.716Z,97035.72
2019-03-26T08:13:19.363Z,97038.34
2019-03-26T08:14:23.126Z,97036.80
2019-03-26T08:15:26.781Z,97041.43
2019-03-26T08:16:30.474Z,97032.98
2019-03-26T08:17:34.160Z,97038.48
2019-03-26T08:18:37.760Z,97039.11
2019-03-26T08:19:41.428Z,97033.96
2019-03-26T08:20:45.046Z,97032.31
2019-03-26T08:21:48.685Z,97032.33
2019-03-26T08:22:52.392Z,97027.05
2019-03-26T08:23:56.021Z,97036.52
2019-03-26T08:24:59.698Z,97029.03
2019-03-26T08:26:03.796Z,97026.67
2019-03-26T08:27:10.776Z,97030.27
2019-03-26T08:28:14.405Z,97035.44
2019-03-26T08:29:18.044Z,97040.50
2019-03-26T08:30:21.713Z,97036.25
2019-03-26T08:31:28.549Z,97033.97
2019-03-26T08:32:32.187Z,97024.88
2019-03-26T08:33:35.820Z,97029.72
2019-03-26T08:34:39.527Z,97029.97
2019-03-26T08:35:43.268Z,97026.59
2019-03-26T08:36:47.289Z,97030.44
2019-03-26T08:37:50.993Z,97029.45
2019-03-26T08:38:54.648Z,97028.21
2019-03-26T08:39:58.215Z,97033.96
2019-03-26T08:41:01.831Z,97034.97
2019-03-26T08:42:05.476Z,97036.61
2019-03-26T08:43:09.116Z,97035.49
2019-03-26T08:44:13.199Z,97027.38
2019-03-26T08:45:16.949Z,97024.03
2019-03-26T08:46:20.935Z,97024.84
2019-03-26T08:47:24.579Z,97034.08
2019-03-26T08:48:28.232Z,97028.84
2019-03-26T08:49:31.901Z,97025.13
2019-03-26T08:50:35.540Z,97022.75
2019-03-26T08:51:39.214Z,97023.15
2019-03-26T08:52:42.857Z,97020.80
2019-03-26T08:53:46.893Z,97025.08
2019-03-26T08:54:50.728Z,97022.98
2019-03-26T08:55:55.575Z,97025.69
2019-03-26T08:57:00.716Z,97020.95
2019-03-26T08:58:04.354Z,97023.55
2019-03-26T08:59:07.992Z,97015.61
2019-03-26T09:00:12.897Z,97018.53
2019-03-26T09:01:16.534Z,97019.02
2019-03-26T09:02:22.181Z,97021.86
2019-03-26T09:03:25.887Z,97021.78
2019-03-26T09:04:29.544Z,97020.35
2019-03-26T09:05:33.167Z,97023.42
2019-03-26T09:06:36.800Z,97018.28
2019-03-26T09:07:40.634Z,97022.14
2019-03-26T09:08:44.750Z,97022.44
2019-03-26T09:09:48.737Z,97014.34
2019-03-26T09:10:52.375Z,97013.96
2019-03-26T09:11:57.938Z,97020.76
2019-03-26T09:13:01.663Z,97017.47
2019-03-26T09:14:05.616Z,97009.30
2019-03-26T09:15:14.393Z,97013.64
2019-03-26T09:16:17.184Z,97012.43
2019-03-26T09:17:20.819Z,97010.56
2019-03-26T09:18:24.660Z,97010.03
2019-03-26T09:19:28.290Z,97010.19
2019-03-26T09:20:31.924Z,97011.45
2019-03-26T09:21:35.564Z,97018.86
2019-03-26T09:22:39.206Z,97010.45
2019-03-26T09:23:42.868Z,97016.66
2019-03-26T09:24:46.550Z,97006.36
2019-03-26T09:25:50.287Z,97009.20
2019-03-26T09:26:53.975Z,97013.37
2019-03-26T09:27:57.617Z,97007.56
2019-03-26T09:29:01.216Z,97004.13
2019-03-26T09:30:10.096Z,97014.81
2019-03-26T09:31:13.787Z,97016.95
2019-03-26T09:32:17.425Z,97016.05
2019-03-26T09:33:21.064Z,97016.45
2019-03-26T09:34:24.755Z,97014.00
2019-03-26T09:35:28.387Z,97014.23
2019-03-26T09:36:32.018Z,97011.86
2019-03-26T09:37:35.660Z,97010.43
2019-03-26T09:38:39.808Z,97020.17
2019-03-26T09:39:43.479Z,97014.27
2019-03-26T09:40:47.101Z,97024.62
2019-03-26T09:41:50.737Z,97024.71
2019-03-26T09:42:54.438Z,97017.45
2019-03-26T09:43:58.095Z,97016.78
2019-03-26T09:45:01.773Z,97024.71
2019-03-26T09:46:05.415Z,97016.36
2019-03-26T09:47:15.999Z,97019.42
2019-03-26T09:48:14.415Z,97022.44
2019-03-26T09:49:18.049Z,97025.97
2019-03-26T09:50:24.769Z,97030.66
2019-03-26T09:51:28.405Z,97022.60
2019-03-26T09:52:32.218Z,97025.92
2019-03-26T09:53:35.828Z,97024.78
2019-03-26T09:54:39.466Z,97024.81
2019-03-26T09:55:43.137Z,97022.17
2019-03-26T09:56:47.064Z,97021.73
2019-03-26T09:57:50.691Z,97022.19
2019-03-26T09:58:54.248Z,97022.58
2019-03-26T09:59:57.888Z,97028.42
2019-03-26T10:01:01.674Z,97018.22
2019-03-26T10:02:05.394Z,97025.95
2019-03-26T10:03:10.014Z,97020.18
2019-03-26T10:04:13.646Z,97020.87
2019-03-26T10:05:17.285Z,97014.87
2019-03-26T10:06:23.513Z,97018.03
2019-03-26T10:07:26.446Z,97022.45
2019-03-26T10:08:30.194Z,97015.04
2019-03-26T10:09:33.858Z,97010.35
2019-03-26T10:10:37.550Z,97018.39
2019-03-26T10:11:41.185Z,97007.32
2019-03-26T10:12:45.350Z,97004.22
2019-03-26T10:13:48.967Z,97011.47
2019-03-26T10:14:52.611Z,97011.92
2019-03-26T10:15:56.255Z,97007.89
2019-03-26T10:16:59.887Z,97002.05
2019-03-26T10:18:03.622Z,97007.50
2019-03-26T10:19:07.327Z,97005.42
2019-03-26T10:20:11.265Z,97005.17
2019-03-26T10:21:14.826Z,97015.14
2019-03-26T10:22:20.063Z,97002.29
2019-03-26T10:23:23.896Z,97007.64
2019-03-26T10:24:27.536Z,97002.80
2019-03-26T10:25:31.492Z,97009.62
2019-03-26T10:26:35.198Z,97007.88
2019-03-26T10:27:38.844Z,97016.25
2019-03-26T10:28:43.007Z,97000.66
2019-03-26T10:29:46.586Z,97015.05
2019-03-26T10:30:50.239Z,97010.41
2019-03-26T10:31:54.203Z,97000.86
2019-03-26T10:32:57.841Z,97004.79
2019-03-26T10:34:01.562Z,97003.22
2019-03-26T10:35:06.032Z,97005.53
2019-03-26T10:36:09.666Z,96998.48
2019-03-26T10:37:13.315Z,97001.84
2019-03-26T10:38:16.942Z,97006.91
2019-03-26T10:39:20.732Z,97005.85
2019-03-26T10:40:37.746Z,97005.07
2019-03-26T10:41:41.661Z,97009.27
2019-03-26T10:42:45.230Z,97006.34
2019-03-26T10:43:48.867Z,97017.79
2019-03-26T10:44:52.623Z,97002.99
2019-03-26T10:45:56.261Z,97016.16
2019-03-26T10:46:59.913Z,97020.54
2019-03-26T10:48:03.651Z,97012.17
2019-03-26T10:49:08.922Z,97014.88
2019-03-26T10:50:13.911Z,97028.46
2019-03-26T10:51:17.669Z,97012.50
2019-03-26T10:52:21.407Z,97021.48
2019-03-26T10:53:25.018Z,97028.90
2019-03-26T10:54:28.656Z,97027.91
2019-03-26T10:55:32.623Z,97025.19
2019-03-26T10:56:36.849Z,97036.69
2019-03-26T10:57:40.578Z,97028.89
2019-03-26T10:58:44.372Z,97023.02
2019-03-26T10:59:48.022Z,97016.70
2019-03-26T11:00:51.692Z,97019.67
2019-03-26T11:01:56.275Z,97032.42
2019-03-26T11:02:59.984Z,97030.92
2019-03-26T11:04:03.740Z,97032.86
2019-03-26T11:05:07.746Z,97027.09
2019-03-26T11:06:11.424Z,97031.48
2019-03-26T11:07:15.064Z,97031.72
2019-03-26T11:08:18.775Z,97027.14
2019-03-26T11:09:26.871Z,97025.98
2019-03-26T11:10:27.897Z,97034.94
2019-03-26T11:11:31.722Z,97029.48
2019-03-26T11:12:35.420Z,97026.95
2019-03-26T11:13:39.071Z,97028.33
2019-03-26T11:14:42.713Z,97038.45
2019-03-26T11:15:46.406Z,97046.17
2019-03-26T11:16:50.144Z,97040.00
2019-03-26T11:17:53.780Z,97057.67
2019-03-26T11:18:57.493Z,97046.37
2019-03-26T11:20:01.129Z,97046.44
2019-03-26T11:21:04.766Z,97057.80
2019-03-26T11:22:08.653Z,97052.34
2019-03-26T11:23:12.388Z,97054.70
2019-03-26T11:24:16.033Z,97045.28
2019-03-26T11:25:19.737Z,97062.92
2019-03-26T11:26:23.372Z,97057.80
2019-03-26T11:27:27.086Z,97050.81
2019-03-26T11:28:30.735Z,97052.41
2019-03-26T11:29:34.369Z,97051.27
2019-03-26T11:30:38.016Z,97062.72
2019-03-26T11:31:41.655Z,97055.88
2019-03-26T11:32:45.324Z,97065.40
2019-03-26T11:33:48.985Z,97054.63
2019-03-26T11:34:52.556Z,97067.02
2019-03-26T11:35:56.181Z,97073.75
2019-03-26T11:36:59.837Z,97074.14
2019-03-26T11:38:03.603Z,97073.49
2019-03-26T11:42:03.403Z,97071.47
2019-03-26T11:43:07.165Z,97076.57
2019-03-26T11:44:10.844Z,97074.25
2019-03-26T11:45:14.954Z,97076.94
2019-03-26T11:46:18.752Z,97074.61
2019-03-26T11:47:22.480Z,97077.06
2019-03-26T11:48:26.092Z,97072.66
2019-03-26T11:49:29.770Z,97074.80
2019-03-26T11:50:33.485Z,97086.08
2019-03-26T11:51:37.188Z,97083.00
2019-03-26T11:52:41.019Z,97079.86
2019-03-26T11:53:44.653Z,97077.90
2019-03-26T11:54:48.337Z,97078.92
2019-03-26T11:55:51.987Z,97082.80
2019-03-26T11:56:55.618Z,97088.75
2019-03-26T11:57:59.356Z,97086.24
2019-03-26T11:59:03.044Z,97079.67
2019-03-26T12:00:09.151Z,97092.90
2019-03-26T12:01:12.793Z,97090.89
2019-03-26T12:02:16.481Z,97093.09
2019-03-26T12:03:20.154Z,97090.98
2019-03-26T12:04:23.866Z,97088.73
2019-03-26T12:05:27.528Z,97096.47
2019-03-26T12:06:31.183Z,97095.83
2019-03-26T12:07:34.821Z,97087.45
2019-03-26T12:08:38.451Z,97093.62
2019-03-26T12:09:46.573Z,97092.34
2019-03-26T12:10:47.499Z,97094.55
2019-03-26T12:11:51.125Z,97098.14
2019-03-26T12:12:54.759Z,97091.34
2019-03-26T12:13:58.390Z,97099.02
2019-03-26T12:15:02.100Z,97095.45
2019-03-26T12:16:06.150Z,97105.34
2019-03-26T12:17:09.777Z,97095.60
2019-03-26T12:18:13.419Z,97098.94
2019-03-26T12:19:17.057Z,97101.12
2019-03-26T12:20:20.787Z,97103.83
2019-03-26T12:21:24.425Z,97101.33
2019-03-26T12:22:31.224Z,97096.14
2019-03-26T12:23:33.494Z,97101.86
2019-03-26T12:24:37.214Z,97101.20
2019-03-26T12:25:40.857Z,97103.81
2019-03-26T12:26:44.540Z,97102.71
2019-03-26T12:27:48.165Z,97100.01
2019-03-26T12:28:51.804Z,97093.03
2019-03-26T12:29:55.641Z,97091.27
2019-03-26T12:30:59.351Z,97094.41
2019-03-26T12:32:03.511Z,97093.70
2019-03-26T12:33:07.627Z,97090.84